createdAt,value
2022-10-17T09:40:29.004Z,3.50
2022-10-17T09:43:00.465Z,3.53
2022-10-17T09:45:34.085Z,4.22
2022-10-17T09:48:11.873Z,4.03
2022-10-17T09:50:44.707Z,4.57
2022-10-17T09:53:19.066Z,4.18
2022-10-17T09:55:56.663Z,4.18
2022-10-17T09:58:42.483Z,4.07
2022-10-17T10:01:24.391Z,3.80
2022-10-17T10:04:12.428Z,3.72
2022-10-17T10:07:10.177Z,3.22
2022-10-17T10:09:41.585Z,4.28
2022-10-17T10:12:26.857Z,4.13
2022-10-17T10:14:58.414Z,4.05
2022-10-17T10:17:46.561Z,3.60
2022-10-17T10:20:32.888Z,3.83
2022-10-17T10:23:14.823Z,4.22
2022-10-17T10:25:54.749Z,3.90
2022-10-17T10:28:31.031Z,3.60
2022-10-17T10:31:09.289Z,4.35
2022-10-17T10:33:48.086Z,4.18
2022-10-17T10:36:23.389Z,4.53
2022-10-17T10:38:56.271Z,4.03
2022-10-17T10:41:28.130Z,3.97
2022-10-17T10:44:03.620Z,3.75
2022-10-17T10:46:33.256Z,3.50
2022-10-17T10:49:03.878Z,3.78
2022-10-17T10:51:37.987Z,3.90
2022-10-17T10:54:13.667Z,3.80
2022-10-17T10:56:48.798Z,3.78
2022-10-17T10:59:30.742Z,3.72
2022-10-17T11:02:13.838Z,3.50
2022-10-17T11:04:57.075Z,4.20
2022-10-17T11:07:32.781Z,3.92
2022-10-17T11:10:14.343Z,4.18
2022-10-17T11:12:52.879Z,4.22
2022-10-17T11:15:31.767Z,3.15
2022-10-17T11:18:10.095Z,4.07
2022-10-17T11:20:54.066Z,3.60
2022-10-17T11:23:30.650Z,3.72
2022-10-17T11:26:09.140Z,3.60
2022-10-17T11:28:44.586Z,3.80
2022-10-17T11:31:22.423Z,4.13
2022-10-17T11:34:06.230Z,3.70
2022-10-17T11:39:48.902Z,3.92
2022-10-17T11:42:25.055Z,3.65
2022-10-17T11:45:05.951Z,3.63
2022-10-17T11:48:05.396Z,3.92
2022-10-17T11:56:40.409Z,3.25
2022-10-17T11:59:43.534Z,3.75
2022-10-17T12:02:32.862Z,3.10
2022-10-17T12:05:22.026Z,3.10
2022-10-17T12:08:02.388Z,3.50
2022-10-17T12:11:01.003Z,3.25
2022-10-17T12:13:52.974Z,2.78
2022-10-17T12:16:50.778Z,3.30
2022-10-17T12:19:34.883Z,3.17
2022-10-17T12:22:26.901Z,3.22
2022-10-17T12:24:59.506Z,3.47
2022-10-17T12:27:43.836Z,3.30
2022-10-17T12:30:22.498Z,3.25
2022-10-17T12:33:07.473Z,3.05
2022-10-17T12:35:43.263Z,2.90
2022-10-17T12:38:32.364Z,3.20
2022-10-17T12:41:08.506Z,3.25
2022-10-17T12:43:55.783Z,2.67
2022-10-17T12:46:56.828Z,3.20
2022-10-17T12:49:54.424Z,3.45
2022-10-17T12:55:27.910Z,3.17
2022-10-17T12:58:00.647Z,3.15
2022-10-17T13:18:41.220Z,3.00
2022-10-17T13:21:19.468Z,2.83
2022-10-17T13:23:51.524Z,2.80
2022-10-17T13:26:23.271Z,2.67
2022-10-17T13:29:06.979Z,2.55
2022-10-17T13:31:44.257Z,3.00
2022-10-17T13:34:21.214Z,2.80
2022-10-17T13:36:55.425Z,2.65
2022-10-17T13:39:54.329Z,2.80
2022-10-17T13:42:29.471Z,2.70
2022-10-17T13:45:00.842Z,2.90
2022-10-17T13:47:34.418Z,2.88
2022-10-17T13:50:39.644Z,2.75
2022-10-17T13:53:22.558Z,2.95
2022-10-17T13:56:16.178Z,2.55
2022-10-17T13:58:52.348Z,2.90
2022-10-17T14:01:26.050Z,3.55
2022-10-17T14:04:08.460Z,2.88
2022-10-17T14:06:47.592Z,3.40
2022-10-17T14:09:27.148Z,3.38
2022-10-17T14:12:03.580Z,2.90
2022-10-17T14:14:51.652Z,2.80
2022-10-17T14:17:27.439Z,3.22
2022-10-17T14:20:26.650Z,3.20
2022-10-17T14:23:22.378Z,3.20
2022-10-17T14:25:48.905Z,2.85
2022-10-17T14:30:56.639Z,3.00
2022-10-17T14:33:31.067Z,3.17
2022-10-17T14:36:10.072Z,2.92
2022-10-17T14:38:55.936Z,3.63
2022-10-17T14:41:42.277Z,4.03
2022-10-17T14:44:21.903Z,3.63
2022-10-17T14:47:00.247Z,3.28
2022-10-17T14:49:38.037Z,4.38
2022-10-17T14:52:25.793Z,5.72
2022-10-17T14:54:58.285Z,4.55
2022-10-17T14:57:31.367Z,5.45
2022-10-17T15:00:05.156Z,5.40
2022-10-17T15:02:35.249Z,4.35
2022-10-17T15:05:06.500Z,5.80
2022-10-17T15:07:39.573Z,4.00
2022-10-17T15:10:26.644Z,4.45
2022-10-17T15:13:26.172Z,4.47
2022-10-17T15:15:54.273Z,4.28
2022-10-17T15:18:33.136Z,5.53
2022-10-17T15:21:11.263Z,6.47
2022-10-17T15:23:47.642Z,6.82
2022-10-17T15:28:53.547Z,9.63
2022-10-17T15:31:31.547Z,12.65
2022-10-17T15:34:01.422Z,18.85
2022-10-17T15:36:34.862Z,16.48
2022-10-17T15:39:07.126Z,12.25
2022-10-17T15:41:39.295Z,8.73
2022-10-17T15:44:09.358Z,7.68
2022-10-17T15:46:44.571Z,6.05
2022-10-17T15:49:20.215Z,6.25
2022-10-17T15:51:55.086Z,8.15
2022-10-17T15:54:25.297Z,8.40
2022-10-17T15:56:58.315Z,6.80
2022-10-17T15:59:35.165Z,7.80
2022-10-17T16:02:05.679Z,10.68
2022-10-17T16:04:38.556Z,13.15
2022-10-17T16:07:10.719Z,17.50
2022-10-17T16:09:44.407Z,17.73
2022-10-17T16:12:24.901Z,15.70
2022-10-17T16:14:56.438Z,13.93
2022-10-17T16:17:33.499Z,15.63
2022-10-17T16:20:03.794Z,16.17
2022-10-17T16:22:37.630Z,19.23
2022-10-17T16:25:10.982Z,18.85
2022-10-17T16:27:43.213Z,21.70
2022-10-17T16:30:14.911Z,23.13
2022-10-17T16:32:45.440Z,23.17
2022-10-17T16:35:20.290Z,20.95
2022-10-17T16:37:50.575Z,20.80
2022-10-17T16:40:25.246Z,18.25
2022-10-17T16:42:56.474Z,18.00
2022-10-17T16:45:30.032Z,16.83
2022-10-17T16:48:00.085Z,17.77
2022-10-17T16:50:31.599Z,15.80
2022-10-17T16:53:04.388Z,15.23
2022-10-17T16:55:40.612Z,14.98
2022-10-17T16:58:13.766Z,14.25
2022-10-17T17:00:47.195Z,14.05
2022-10-17T17:03:18.879Z,13.25
2022-10-17T17:05:52.691Z,13.35
2022-10-17T17:08:22.415Z,13.18
2022-10-17T17:10:56.684Z,11.98
2022-10-17T17:13:32.150Z,13.00
2022-10-17T17:16:09.713Z,12.15
2022-10-17T17:18:42.720Z,11.70
2022-10-17T17:21:14.386Z,12.77
2022-10-17T17:23:45.450Z,12.07
2022-10-17T17:26:17.917Z,13.98
2022-10-17T17:28:59.330Z,13.05
2022-10-17T17:31:35.778Z,13.57
2022-10-17T17:34:13.155Z,12.30
2022-10-17T17:36:49.683Z,13.00
2022-10-17T17:39:21.377Z,13.52
2022-10-17T17:41:53.302Z,12.55
2022-10-17T17:44:24.815Z,12.80
2022-10-17T17:46:54.994Z,12.65
2022-10-17T17:49:26.840Z,12.65
2022-10-17T17:51:57.165Z,12.57
2022-10-17T17:54:27.218Z,13.95
2022-10-17T17:56:57.433Z,13.15
2022-10-17T18:02:03.219Z,12.02
2022-10-17T18:04:34.472Z,13.45
2022-10-17T18:07:04.583Z,14.85
2022-10-17T18:09:34.450Z,12.23
2022-10-17T18:12:04.560Z,13.07
2022-10-17T18:14:36.486Z,13.55
2022-10-17T18:17:06.760Z,12.65
2022-10-17T18:19:36.589Z,12.18
2022-10-17T18:22:06.671Z,11.23
2022-10-17T18:24:36.466Z,10.32
2022-10-17T18:27:06.673Z,11.07
2022-10-17T18:32:07.727Z,10.60
2022-10-17T18:37:07.547Z,11.57
2022-10-17T18:39:37.732Z,11.57
2022-10-17T18:42:11.677Z,11.45
2022-10-17T18:44:43.926Z,9.95
2022-10-17T18:47:14.444Z,11.35
2022-10-17T18:49:44.559Z,11.30
2022-10-17T18:52:14.957Z,10.82
2022-10-17T18:54:45.146Z,10.40
2022-10-17T18:57:15.238Z,9.95
2022-10-17T18:59:46.955Z,9.57
2022-10-17T19:02:17.277Z,10.02
2022-10-17T19:09:44.783Z,9.55
2022-10-17T19:12:45.614Z,9.52
2022-10-17T19:15:16.965Z,10.32
2022-10-17T19:17:47.028Z,9.82
2022-10-17T19:20:17.447Z,9.75
2022-10-17T19:22:49.039Z,10.77
2022-10-17T19:25:20.381Z,11.40
2022-10-17T19:27:50.422Z,11.55
2022-10-17T19:30:21.982Z,10.13
2022-10-17T19:32:52.968Z,11.25
2022-10-17T19:35:22.999Z,9.98
2022-10-17T19:37:53.501Z,9.30
2022-10-17T19:43:56.759Z,7.80
2022-10-17T19:48:58.588Z,8.40
2022-10-17T19:54:01.943Z,9.80
2022-10-17T19:56:37.468Z,9.20
2022-10-17T19:59:08.408Z,8.60
2022-10-17T20:01:41.081Z,9.27
2022-10-17T20:04:12.686Z,9.60
2022-10-17T20:06:43.510Z,9.23
2022-10-17T20:09:16.882Z,10.45
2022-10-17T20:11:47.262Z,18.17
2022-10-17T20:14:17.208Z,19.17
2022-10-17T20:16:50.597Z,22.58
2022-10-17T20:19:20.923Z,17.75
2022-10-17T20:21:50.561Z,19.25
2022-10-17T20:26:49.713Z,21.27
2022-10-17T20:31:51.883Z,18.67
2022-10-17T20:34:23.745Z,20.83
2022-10-17T20:36:56.053Z,14.65
2022-10-17T20:39:26.479Z,16.30
2022-10-17T20:41:56.526Z,13.43
2022-10-17T20:44:26.691Z,13.00
2022-10-17T20:47:02.303Z,11.60
2022-10-17T20:49:33.976Z,15.05
2022-10-17T20:52:04.548Z,15.20
2022-10-17T20:54:35.786Z,17.00
2022-10-17T20:57:05.895Z,18.45
2022-10-17T20:59:36.442Z,16.67
2022-10-17T21:02:08.279Z,19.20
2022-10-17T21:04:46.453Z,18.15
2022-10-17T21:07:17.622Z,19.15
2022-10-17T21:09:47.821Z,17.73
2022-10-17T21:15:07.808Z,20.13
2022-10-17T21:17:39.000Z,21.25
2022-10-17T21:20:10.001Z,14.40
2022-10-17T21:22:39.713Z,12.90
2022-10-17T21:25:10.677Z,11.23
2022-10-17T21:27:41.488Z,13.68
2022-10-17T21:32:57.771Z,10.00
2022-10-17T21:35:28.289Z,14.43
2022-10-17T21:37:57.902Z,12.95
2022-10-17T21:42:57.263Z,9.75
2022-10-17T21:45:28.306Z,9.88
2022-10-17T21:48:12.660Z,10.18
2022-10-17T21:50:43.348Z,17.13
2022-10-17T21:53:12.998Z,9.35
2022-10-17T21:58:12.230Z,7.97
2022-10-17T22:00:42.172Z,14.35
2022-10-17T22:03:15.483Z,14.75
2022-10-17T22:05:46.744Z,14.82
2022-10-17T22:08:16.372Z,14.07
2022-10-17T22:10:46.488Z,12.25
2022-10-17T22:13:16.243Z,14.23
2022-10-17T22:15:46.166Z,14.98
2022-10-17T22:18:17.587Z,13.63
2022-10-17T22:20:47.545Z,15.15
2022-10-17T22:23:17.209Z,10.25
2022-10-17T22:28:24.084Z,11.82
2022-10-17T22:30:54.249Z,15.23
2022-10-17T22:33:25.372Z,18.63
2022-10-17T22:35:55.469Z,16.48
2022-10-17T22:38:25.076Z,14.75
2022-10-17T22:43:24.192Z,12.45
2022-10-17T22:45:55.216Z,13.13
2022-10-17T22:48:27.517Z,14.63
2022-10-17T22:50:58.711Z,11.32
2022-10-17T22:53:30.221Z,14.23
2022-10-17T22:56:02.237Z,15.38
2022-10-17T22:58:34.435Z,9.32
2022-10-17T23:01:05.741Z,8.48
2022-10-17T23:22:56.841Z,9.45
2022-10-17T23:25:27.184Z,7.72
2022-10-17T23:30:26.814Z,8.00
2022-10-17T23:32:56.530Z,8.40
2022-10-17T23:37:57.317Z,7.43
2022-10-17T23:40:27.438Z,9.07
2022-10-17T23:42:57.251Z,7.18
2022-10-17T23:45:27.447Z,13.82
2022-10-17T23:47:57.149Z,10.57
2022-10-17T23:52:57.759Z,6.60
2022-10-17T23:55:27.748Z,7.68
2022-10-17T23:58:16.014Z,11.18
